sensor_id;sensor_type;location;lat;lon;timestamp;pressure;altitude;pressure_sealevel;temperature;humidity
13348;BME280;6743;49.934;9.138;2023-02-04T00:00:49;101743.09;;;7.58;100.00
13348;BME280;6743;49.934;9.138;2023-02-04T00:03:15;101759.03;;;7.56;100.00
13348;BME280;6743;49.934;9.138;2023-02-04T00:05:42;101755.66;;;7.54;100.00
13348;BME280;6743;49.934;9.138;2023-02-04T00:08:08;101742.44;;;7.54;100.00
13348;BME280;6743;49.934;9.138;2023-02-04T00:10:35;101756.63;;;7.53;100.00
13348;BME280;6743;49.934;9.138;2023-02-04T00:13:01;101761.91;;;7.53;100.00
13348;BME280;6743;49.934;9.138;2023-02-04T00:15:28;101761.06;;;7.53;100.00
13348;BME280;6743;49.934;9.138;2023-02-04T00:17:54;101751.75;;;7.47;100.00
13348;BME280;6743;49.934;9.138;2023-02-04T00:20:21;101753.00;;;7.54;100.00
13348;BME280;6743;49.934;9.138;2023-02-04T00:22:47;101757.88;;;7.47;100.00
13348;BME280;6743;49.934;9.138;2023-02-04T00:25:13;101754.84;;;7.54;100.00
13348;BME280;6743;49.934;9.138;2023-02-04T00:27:40;101753.25;;;7.51;100.00
13348;BME280;6743;49.934;9.138;2023-02-04T00:30:07;101768.16;;;7.52;100.00
13348;BME280;6743;49.934;9.138;2023-02-04T00:32:33;101756.75;;;7.51;100.00
13348;BME280;6743;49.934;9.138;2023-02-04T00:34:59;101774.38;;;7.51;100.00
13348;BME280;6743;49.934;9.138;2023-02-04T00:37:26;101791.06;;;7.51;100.00
13348;BME280;6743;49.934;9.138;2023-02-04T00:39:52;101779.75;;;7.49;100.00
13348;BME280;6743;49.934;9.138;2023-02-04T00:42:18;101769.72;;;7.42;100.00
13348;BME280;6743;49.934;9.138;2023-02-04T00:44:44;101777.13;;;7.49;100.00
13348;BME280;6743;49.934;9.138;2023-02-04T00:47:10;101779.75;;;7.49;100.00
13348;BME280;6743;49.934;9.138;2023-02-04T00:49:36;101788.63;;;7.48;100.00
13348;BME280;6743;49.934;9.138;2023-02-04T00:52:02;101773.88;;;7.46;100.00
13348;BME280;6743;49.934;9.138;2023-02-04T00:54:28;101772.16;;;7.45;100.00
13348;BME280;6743;49.934;9.138;2023-02-04T00:56:54;101779.34;;;7.43;100.00
13348;BME280;6743;49.934;9.138;2023-02-04T00:59:20;101782.94;;;7.42;100.00
13348;BME280;6743;49.934;9.138;2023-02-04T01:01:47;101786.66;;;7.39;100.00
13348;BME280;6743;49.934;9.138;2023-02-04T01:04:13;101795.53;;;7.38;100.00
13348;BME280;6743;49.934;9.138;2023-02-04T01:06:39;101795.63;;;7.37;100.00
13348;BME280;6743;49.934;9.138;2023-02-04T01:09:06;101770.09;;;7.25;100.00
13348;BME280;6743;49.934;9.138;2023-02-04T01:11:32;101799.31;;;7.34;100.00
13348;BME280;6743;49.934;9.138;2023-02-04T01:13:59;101795.81;;;7.34;100.00
13348;BME280;6743;49.934;9.138;2023-02-04T01:16:25;101800.25;;;7.33;100.00
13348;BME280;6743;49.934;9.138;2023-02-04T01:18:51;101806.28;;;7.35;100.00
13348;BME280;6743;49.934;9.138;2023-02-04T01:21:20;101810.81;;;7.33;100.00
13348;BME280;6743;49.934;9.138;2023-02-04T01:23:46;101810.81;;;7.33;100.00
13348;BME280;6743;49.934;9.138;2023-02-04T01:26:14;101807.34;;;7.33;100.00
13348;BME280;6743;49.934;9.138;2023-02-04T01:28:40;101815.38;;;7.31;100.00
13348;BME280;6743;49.934;9.138;2023-02-04T01:31:06;101826.87;;;7.30;100.00
13348;BME280;6743;49.934;9.138;2023-02-04T01:33:32;101830.37;;;7.31;100.00
13348;BME280;6743;49.934;9.138;2023-02-04T01:35:58;101838.38;;;7.29;100.00
13348;BME280;6743;49.934;9.138;2023-02-04T01:38:24;101842.91;;;7.27;100.00
13348;BME280;6743;49.934;9.138;2023-02-04T01:40:50;101833.31;;;7.26;100.00
13348;BME280;6743;49.934;9.138;2023-02-04T01:43:17;101839.56;;;7.25;100.00
13348;BME280;6743;49.934;9.138;2023-02-04T01:45:46;101834.47;;;7.22;100.00
13348;BME280;6743;49.934;9.138;2023-02-04T01:48:13;101856.44;;;7.23;100.00
13348;BME280;6743;49.934;9.138;2023-02-04T01:50:44;101837.72;;;7.13;100.00
13348;BME280;6743;49.934;9.138;2023-02-04T01:53:11;101861.81;;;7.21;100.00
13348;BME280;6743;49.934;9.138;2023-02-04T01:55:37;101856.75;;;7.18;100.00
13348;BME280;6743;49.934;9.138;2023-02-04T01:58:03;101857.81;;;7.16;100.00
13348;BME280;6743;49.934;9.138;2023-02-04T02:00:34;101859.81;;;7.12;100.00
13348;BME280;6743;49.934;9.138;2023-02-04T02:03:05;101859.06;;;7.10;100.00
13348;BME280;6743;49.934;9.138;2023-02-04T02:05:36;101866.34;;;7.06;100.00
13348;BME280;6743;49.934;9.138;2023-02-04T02:08:04;101864.00;;;7.02;100.00
13348;BME280;6743;49.934;9.138;2023-02-04T02:10:32;101871.06;;;7.01;100.00
13348;BME280;6743;49.934;9.138;2023-02-04T02:12:59;101872.12;;;6.99;100.00
13348;BME280;6743;49.934;9.138;2023-02-04T02:15:26;101883.75;;;6.96;100.00
13348;BME280;6743;49.934;9.138;2023-02-04T02:17:53;101879.50;;;6.94;100.00
13348;BME280;6743;49.934;9.138;2023-02-04T02:20:21;101875.38;;;6.90;100.00
13348;BME280;6743;49.934;9.138;2023-02-04T02:22:55;101883.50;;;6.87;100.00
13348;BME280;6743;49.934;9.138;2023-02-04T02:25:24;101879.28;;;6.84;100.00
13348;BME280;6743;49.934;9.138;2023-02-04T02:27:50;101856.91;;;6.77;100.00
13348;BME280;6743;49.934;9.138;2023-02-04T02:30:17;101870.81;;;6.79;100.00
13348;BME280;6743;49.934;9.138;2023-02-04T02:32:53;101867.53;;;6.76;100.00
13348;BME280;6743;49.934;9.138;2023-02-04T02:35:20;101868.38;;;6.76;100.00
13348;BME280;6743;49.934;9.138;2023-02-04T02:37:46;101863.13;;;6.76;100.00
13348;BME280;6743;49.934;9.138;2023-02-04T02:40:13;101866.78;;;6.73;100.00
13348;BME280;6743;49.934;9.138;2023-02-04T02:42:40;101878.28;;;6.72;100.00
13348;BME280;6743;49.934;9.138;2023-02-04T02:45:19;101870.59;;;6.69;100.00
13348;BME280;6743;49.934;9.138;2023-02-04T02:47:47;101881.31;;;6.66;100.00
13348;BME280;6743;49.934;9.138;2023-02-04T02:50:16;101883.31;;;6.63;100.00
13348;BME280;6743;49.934;9.138;2023-02-04T02:52:44;101883.59;;;6.58;100.00
13348;BME280;6743;49.934;9.138;2023-02-04T02:55:13;101879.50;;;6.54;100.00
13348;BME280;6743;49.934;9.138;2023-02-04T02:57:41;101879.66;;;6.51;100.00
13348;BME280;6743;49.934;9.138;2023-02-04T03:00:13;101887.69;;;6.50;100.00
13348;BME280;6743;49.934;9.138;2023-02-04T03:02:39;101886.41;;;6.43;100.00
13348;BME280;6743;49.934;9.138;2023-02-04T03:05:05;101902.22;;;6.43;100.00
13348;BME280;6743;49.934;9.138;2023-02-04T03:07:31;101898.06;;;6.39;100.00
13348;BME280;6743;49.934;9.138;2023-02-04T03:09:58;101906.38;;;6.32;100.00
13348;BME280;6743;49.934;9.138;2023-02-04T03:12:24;101904.69;;;6.31;100.00
13348;BME280;6743;49.934;9.138;2023-02-04T03:14:50;101917.31;;;6.26;100.00
13348;BME280;6743;49.934;9.138;2023-02-04T03:17:17;101924.44;;;6.24;100.00
13348;BME280;6743;49.934;9.138;2023-02-04T03:19:43;101917.22;;;6.14;100.00
13348;BME280;6743;49.934;9.138;2023-02-04T03:22:09;101925.78;;;6.17;100.00
13348;BME280;6743;49.934;9.138;2023-02-04T03:24:35;101923.22;;;6.16;100.00
13348;BME280;6743;49.934;9.138;2023-02-04T03:27:02;101928.50;;;6.16;100.00
13348;BME280;6743;49.934;9.138;2023-02-04T03:29:28;101937.47;;;6.13;100.00
13348;BME280;6743;49.934;9.138;2023-02-04T03:31:55;101942.66;;;6.15;100.00
13348;BME280;6743;49.934;9.138;2023-02-04T03:34:24;101938.22;;;6.15;100.00
13348;BME280;6743;49.934;9.138;2023-02-04T03:36:50;101946.13;;;6.15;100.00
13348;BME280;6743;49.934;9.138;2023-02-04T03:39:16;101949.59;;;6.16;100.00
13348;BME280;6743;49.934;9.138;2023-02-04T03:41:42;101955.63;;;6.18;100.00
13348;BME280;6743;49.934;9.138;2023-02-04T03:44:08;101959.00;;;6.20;100.00
13348;BME280;6743;49.934;9.138;2023-02-04T03:46:34;101950.34;;;6.18;100.00
13348;BME280;6743;49.934;9.138;2023-02-04T03:49:00;101956.38;;;6.20;100.00
13348;BME280;6743;49.934;9.138;2023-02-04T03:51:26;101948.47;;;6.20;100.00
13348;BME280;6743;49.934;9.138;2023-02-04T03:53:54;101954.78;;;6.17;100.00
13348;BME280;6743;49.934;9.138;2023-02-04T03:56:20;101967.22;;;6.15;100.00
13348;BME280;6743;49.934;9.138;2023-02-04T03:58:46;101971.81;;;6.12;100.00
13348;BME280;6743;49.934;9.138;2023-02-04T04:01:12;101978.97;;;6.10;100.00
13348;BME280;6743;49.934;9.138;2023-02-04T04:03:38;101996.84;;;6.05;100.00
13348;BME280;6743;49.934;9.138;2023-02-04T04:06:05;101993.44;;;6.03;100.00
13348;BME280;6743;49.934;9.138;2023-02-04T04:08:34;101996.28;;;6.00;100.00
13348;BME280;6743;49.934;9.138;2023-02-04T04:11:00;101991.88;;;6.00;100.00
13348;BME280;6743;49.934;9.138;2023-02-04T04:13:26;101997.38;;;5.96;100.00
13348;BME280;6743;49.934;9.138;2023-02-04T04:15:52;101982.97;;;5.87;100.00
13348;BME280;6743;49.934;9.138;2023-02-04T04:18:18;101989.13;;;5.87;100.00
13348;BME280;6743;49.934;9.138;2023-02-04T04:20:44;101987.47;;;5.85;100.00
13348;BME280;6743;49.934;9.138;2023-02-04T04:23:10;101987.56;;;5.83;100.00
13348;BME280;6743;49.934;9.138;2023-02-04T04:25:36;101985.13;;;5.80;100.00
13348;BME280;6743;49.934;9.138;2023-02-04T04:28:03;101982.59;;;5.79;100.00
13348;BME280;6743;49.934;9.138;2023-02-04T04:30:29;101987.09;;;5.77;100.00
13348;BME280;6743;49.934;9.138;2023-02-04T04:32:55;101986.44;;;5.73;100.00
13348;BME280;6743;49.934;9.138;2023-02-04T04:35:21;101980.00;;;5.63;100.00
13348;BME280;6743;49.934;9.138;2023-02-04T04:37:47;101983.50;;;5.64;100.00
13348;BME280;6743;49.934;9.138;2023-02-04T04:40:13;101995.81;;;5.63;100.00
13348;BME280;6743;49.934;9.138;2023-02-04T04:42:39;102002.28;;;5.58;100.00
13348;BME280;6743;49.934;9.138;2023-02-04T04:45:07;102009.34;;;5.57;100.00
13348;BME280;6743;49.934;9.138;2023-02-04T04:47:33;102004.34;;;5.52;100.00
13348;BME280;6743;49.934;9.138;2023-02-04T04:49:59;102008.28;;;5.45;100.00
13348;BME280;6743;49.934;9.138;2023-02-04T04:52:25;102014.47;;;5.44;100.00
13348;BME280;6743;49.934;9.138;2023-02-04T04:54:51;102011.06;;;5.42;100.00
13348;BME280;6743;49.934;9.138;2023-02-04T04:57:18;102013.03;;;5.39;100.00
13348;BME280;6743;49.934;9.138;2023-02-04T04:59:44;102016.84;;;5.33;100.00
13348;BME280;6743;49.934;9.138;2023-02-04T05:02:10;102004.41;;;5.21;100.00
13348;BME280;6743;49.934;9.138;2023-02-04T05:04:36;102017.22;;;5.27;100.00
13348;BME280;6743;49.934;9.138;2023-02-04T05:07:02;102027.09;;;5.24;100.00
13348;BME280;6743;49.934;9.138;2023-02-04T05:09:28;102023.03;;;5.18;100.00
13348;BME280;6743;49.934;9.138;2023-02-04T05:11:54;102007.81;;;5.07;100.00
13348;BME280;6743;49.934;9.138;2023-02-04T05:14:20;102037.03;;;5.19;100.00
13348;BME280;6743;49.934;9.138;2023-02-04T05:16:46;102037.19;;;5.15;100.00
13348;BME280;6743;49.934;9.138;2023-02-04T05:19:12;102041.59;;;5.15;100.00
13348;BME280;6743;49.934;9.138;2023-02-04T05:21:38;102036.50;;;5.12;100.00
13348;BME280;6743;49.934;9.138;2023-02-04T05:24:04;102042.53;;;5.14;100.00
13348;BME280;6743;49.934;9.138;2023-02-04T05:26:31;102048.56;;;5.16;100.00
13348;BME280;6743;49.934;9.138;2023-02-04T05:28:57;102049.50;;;5.15;100.00
13348;BME280;6743;49.934;9.138;2023-02-04T05:31:25;102039.22;;;5.10;100.00
13348;BME280;6743;49.934;9.138;2023-02-04T05:33:51;102045.34;;;5.11;100.00
13348;BME280;6743;49.934;9.138;2023-02-04T05:36:18;102043.03;;;5.05;100.00
13348;BME280;6743;49.934;9.138;2023-02-04T05:38:44;102043.03;;;5.05;100.00
13348;BME280;6743;49.934;9.138;2023-02-04T05:41:11;102038.97;;;4.99;100.00
13348;BME280;6743;49.934;9.138;2023-02-04T05:43:37;102041.94;;;4.93;100.00
13348;BME280;6743;49.934;9.138;2023-02-04T05:46:03;102019.75;;;4.83;100.00
13348;BME280;6743;49.934;9.138;2023-02-04T05:48:30;102043.37;;;4.99;100.00
13348;BME280;6743;49.934;9.138;2023-02-04T05:50:56;102035.50;;;4.99;100.00
13348;BME280;6743;49.934;9.138;2023-02-04T05:53:22;102030.16;;;5.00;100.00
13348;BME280;6743;49.934;9.138;2023-02-04T05:55:48;102033.97;;;4.95;100.00
13348;BME280;6743;49.934;9.138;2023-02-04T05:58:14;102042.53;;;4.98;100.00
13348;BME280;6743;49.934;9.138;2023-02-04T06:00:40;102017.09;;;4.83;100.00
13348;BME280;6743;49.934;9.138;2023-02-04T06:03:06;102051.28;;;4.99;100.00
13348;BME280;6743;49.934;9.138;2023-02-04T06:05:33;102048.62;;;4.99;100.00
13348;BME280;6743;49.934;9.138;2023-02-04T06:07:59;102051.53;;;4.94;100.00
13348;BME280;6743;49.934;9.138;2023-02-04T06:10:25;102048.97;;;4.93;100.00
13348;BME280;6743;49.934;9.138;2023-02-04T06:12:51;102041.09;;;4.93;100.00
13348;BME280;6743;49.934;9.138;2023-02-04T06:15:17;102049.84;;;4.93;100.00
13348;BME280;6743;49.934;9.138;2023-02-04T06:17:43;102049.16;;;4.90;100.00
13348;BME280;6743;49.934;9.138;2023-02-04T06:20:10;102055.53;;;5.01;100.00
13348;BME280;6743;49.934;9.138;2023-02-04T06:22:38;102057.03;;;5.05;100.00
13348;BME280;6743;49.934;9.138;2023-02-04T06:25:05;102060.34;;;5.09;100.00
13348;BME280;6743;49.934;9.138;2023-02-04T06:27:31;102043.31;;;5.00;100.00
13348;BME280;6743;49.934;9.138;2023-02-04T06:29:57;102055.69;;;5.14;100.00
13348;BME280;6743;49.934;9.138;2023-02-04T06:32:23;102064.28;;;5.18;100.00
13348;BME280;6743;49.934;9.138;2023-02-04T06:34:49;102069.41;;;5.19;100.00
13348;BME280;6743;49.934;9.138;2023-02-04T06:37:15;102073.69;;;5.22;100.00
13348;BME280;6743;49.934;9.138;2023-02-04T06:39:42;102085.91;;;5.23;100.00
13348;BME280;6743;49.934;9.138;2023-02-04T06:42:09;102089.38;;;5.23;100.00
13348;BME280;6743;49.934;9.138;2023-02-04T06:44:36;102101.59;;;5.24;100.00
13348;BME280;6743;49.934;9.138;2023-02-04T06:47:02;102105.09;;;5.25;100.00
13348;BME280;6743;49.934;9.138;2023-02-04T06:49:28;102093.59;;;5.26;100.00
13348;BME280;6743;49.934;9.138;2023-02-04T06:51:54;102098.97;;;5.24;100.00
13348;BME280;6743;49.934;9.138;2023-02-04T06:54:20;102105.16;;;5.23;100.00
13348;BME280;6743;49.934;9.138;2023-02-04T06:56:46;102113.06;;;5.23;100.00
13348;BME280;6743;49.934;9.138;2023-02-04T06:59:12;102076.50;;;5.03;100.00
13348;BME280;6743;49.934;9.138;2023-02-04T07:01:38;102115.78;;;5.22;100.00
13348;BME280;6743;49.934;9.138;2023-02-04T07:04:04;102130.78;;;5.20;100.00
13348;BME280;6743;49.934;9.138;2023-02-04T07:06:30;102124.87;;;5.16;100.00
13348;BME280;6743;49.934;9.138;2023-02-04T07:08:56;102125.22;;;5.10;100.00
13348;BME280;6743;49.934;9.138;2023-02-04T07:11:22;102134.03;;;5.09;100.00
13348;BME280;6743;49.934;9.138;2023-02-04T07:13:48;102142.19;;;5.04;100.00
13348;BME280;6743;49.934;9.138;2023-02-04T07:16:14;102145.03;;;5.00;100.00
13348;BME280;6743;49.934;9.138;2023-02-04T07:18:40;102147.94;;;4.95;100.00
13348;BME280;6743;49.934;9.138;2023-02-04T07:21:06;102152.47;;;4.92;100.00
13348;BME280;6743;49.934;9.138;2023-02-04T07:23:32;102160.56;;;4.89;100.00
13348;BME280;6743;49.934;9.138;2023-02-04T07:25:58;102168.53;;;4.87;100.00
13348;BME280;6743;49.934;9.138;2023-02-04T07:28:24;102166.91;;;4.85;100.00
13348;BME280;6743;49.934;9.138;2023-02-04T07:30:51;102161.75;;;4.83;100.00
13348;BME280;6743;49.934;9.138;2023-02-04T07:33:17;102178.44;;;4.82;100.00
13348;BME280;6743;49.934;9.138;2023-02-04T07:35:43;102174.97;;;4.82;100.00
13348;BME280;6743;49.934;9.138;2023-02-04T07:38:09;102179.50;;;4.78;100.00
13348;BME280;6743;49.934;9.138;2023-02-04T07:40:35;102175.63;;;4.69;100.00
13348;BME280;6743;49.934;9.138;2023-02-04T07:43:01;102181.47;;;4.74;100.00
13348;BME280;6743;49.934;9.138;2023-02-04T07:45:30;102195.53;;;4.73;100.00
13348;BME280;6743;49.934;9.138;2023-02-04T07:47:57;102186.03;;;4.71;100.00
13348;BME280;6743;49.934;9.138;2023-02-04T07:50:23;102207.69;;;4.76;100.00
13348;BME280;6743;49.934;9.138;2023-02-04T07:52:49;102215.59;;;4.76;100.00
13348;BME280;6743;49.934;9.138;2023-02-04T07:55:15;102221.53;;;4.80;100.00
13348;BME280;6743;49.934;9.138;2023-02-04T07:57:41;102226.69;;;4.81;100.00
13348;BME280;6743;49.934;9.138;2023-02-04T08:00:09;102232.75;;;4.83;100.00
13348;BME280;6743;49.934;9.138;2023-02-04T08:02:37;102235.28;;;4.85;100.00
13348;BME280;6743;49.934;9.138;2023-02-04T08:05:05;102234.34;;;4.86;100.00
13348;BME280;6743;49.934;9.138;2023-02-04T08:07:31;102235.19;;;4.86;100.00
13348;BME280;6743;49.934;9.138;2023-02-04T08:09:57;102231.62;;;4.87;100.00
13348;BME280;6743;49.934;9.138;2023-02-04T08:12:23;102229.16;;;4.84;100.00
13348;BME280;6743;49.934;9.138;2023-02-04T08:14:49;102240.25;;;4.91;100.00
13348;BME280;6743;49.934;9.138;2023-02-04T08:17:15;102234.78;;;4.94;100.00
13348;BME280;6743;49.934;9.138;2023-02-04T08:19:41;102247.88;;;4.95;100.00
13348;BME280;6743;49.934;9.138;2023-02-04T08:22:07;102238.28;;;4.94;100.00
13348;BME280;6743;49.934;9.138;2023-02-04T08:24:34;102259.00;;;5.00;100.00
13348;BME280;6743;49.934;9.138;2023-02-04T08:27:00;102263.19;;;5.04;100.00
13348;BME280;6743;49.934;9.138;2023-02-04T08:29:26;102261.31;;;5.06;100.00
13348;BME280;6743;49.934;9.138;2023-02-04T08:31:53;102265.62;;;5.07;100.00
13348;BME280;6743;49.934;9.138;2023-02-04T08:34:19;102270.66;;;5.12;100.00
13348;BME280;6743;49.934;9.138;2023-02-04T08:36:45;102274.84;;;5.16;100.00
13348;BME280;6743;49.934;9.138;2023-02-04T08:39:12;102275.50;;;5.20;100.00
13348;BME280;6743;49.934;9.138;2023-02-04T08:41:38;102289.38;;;5.23;100.00
13348;BME280;6743;49.934;9.138;2023-02-04T08:44:04;102289.19;;;5.26;100.00
13348;BME280;6743;49.934;9.138;2023-02-04T08:46:30;102290.81;;;5.29;100.00
13348;BME280;6743;49.934;9.138;2023-02-04T08:48:58;102295.94;;;5.32;100.00
13348;BME280;6743;49.934;9.138;2023-02-04T08:51:24;102293.12;;;5.35;100.00
13348;BME280;6743;49.934;9.138;2023-02-04T08:53:50;102295.69;;;5.36;100.00
13348;BME280;6743;49.934;9.138;2023-02-04T08:56:16;102295.84;;;5.33;100.00
13348;BME280;6743;49.934;9.138;2023-02-04T08:58:45;102311.31;;;5.39;100.00
13348;BME280;6743;49.934;9.138;2023-02-04T09:01:12;102318.28;;;5.40;100.00
13348;BME280;6743;49.934;9.138;2023-02-04T09:03:38;102319.91;;;5.43;100.00
13348;BME280;6743;49.934;9.138;2023-02-04T09:06:05;102329.44;;;5.45;100.00
13348;BME280;6743;49.934;9.138;2023-02-04T09:08:31;102330.03;;;5.50;100.00
13348;BME280;6743;49.934;9.138;2023-02-04T09:10:57;102329.84;;;5.53;100.00
13348;BME280;6743;49.934;9.138;2023-02-04T09:13:24;102328.00;;;5.55;100.00
13348;BME280;6743;49.934;9.138;2023-02-04T09:15:50;102335.81;;;5.57;100.00
13348;BME280;6743;49.934;9.138;2023-02-04T09:18:17;102332.25;;;5.58;100.00
13348;BME280;6743;49.934;9.138;2023-02-04T09:20:46;102334.81;;;5.60;100.00
13348;BME280;6743;49.934;9.138;2023-02-04T09:23:12;102331.22;;;5.61;100.00
13348;BME280;6743;49.934;9.138;2023-02-04T09:25:39;102332.06;;;5.61;100.00
13348;BME280;6743;49.934;9.138;2023-02-04T09:28:06;102338.97;;;5.64;100.00
13348;BME280;6743;49.934;9.138;2023-02-04T09:30:34;102328.37;;;5.65;100.00
13348;BME280;6743;49.934;9.138;2023-02-04T09:33:00;102329.97;;;5.68;100.00
13348;BME280;6743;49.934;9.138;2023-02-04T09:35:26;102328.09;;;5.70;100.00
13348;BME280;6743;49.934;9.138;2023-02-04T09:37:52;102330.47;;;5.74;100.00
13348;BME280;6743;49.934;9.138;2023-02-04T09:40:19;102342.56;;;5.78;100.00
13348;BME280;6743;49.934;9.138;2023-02-04T09:42:46;102349.34;;;5.82;100.00
13348;BME280;6743;49.934;9.138;2023-02-04T09:45:20;102345.63;;;5.86;100.00
13348;BME280;6743;49.934;9.138;2023-02-04T09:47:49;102351.53;;;5.91;100.00
13348;BME280;6743;49.934;9.138;2023-02-04T09:50:18;102357.47;;;5.95;100.00
13348;BME280;6743;49.934;9.138;2023-02-04T09:52:48;102363.44;;;5.99;100.00
13348;BME280;6743;49.934;9.138;2023-02-04T09:55:18;102361.47;;;6.02;100.00
13348;BME280;6743;49.934;9.138;2023-02-04T09:57:44;102344.28;;;5.95;100.00
13348;BME280;6743;49.934;9.138;2023-02-04T10:00:15;102368.22;;;6.08;100.00
13348;BME280;6743;49.934;9.138;2023-02-04T10:02:41;102375.94;;;6.11;100.00
13348;BME280;6743;49.934;9.138;2023-02-04T10:05:12;102365.31;;;6.12;100.00
13348;BME280;6743;49.934;9.138;2023-02-04T10:07:39;102377.47;;;6.15;100.00
13348;BME280;6743;49.934;9.138;2023-02-04T10:10:05;102376.44;;;6.17;100.00
13348;BME280;6743;49.934;9.138;2023-02-04T10:12:31;102378.06;;;6.20;100.00
13348;BME280;6743;49.934;9.138;2023-02-04T10:14:57;102384.84;;;6.24;100.00
13348;BME280;6743;49.934;9.138;2023-02-04T10:17:24;102380.38;;;6.26;100.00
13348;BME280;6743;49.934;9.138;2023-02-04T10:19:51;102393.19;;;6.32;100.00
13348;BME280;6743;49.934;9.138;2023-02-04T10:22:19;102396.53;;;6.36;100.00
13348;BME280;6743;49.934;9.138;2023-02-04T10:24:46;102375.25;;;6.39;100.00
13348;BME280;6743;49.934;9.138;2023-02-04T10:27:16;102376.88;;;6.41;100.00
13348;BME280;6743;49.934;9.138;2023-02-04T10:29:42;102387.16;;;6.46;100.00
13348;BME280;6743;49.934;9.138;2023-02-04T10:32:27;102385.09;;;6.51;100.00
13348;BME280;6743;49.934;9.138;2023-02-04T10:34:57;102385.53;;;6.59;100.00
13348;BME280;6743;49.934;9.138;2023-02-04T10:37:24;102384.31;;;6.64;100.00
13348;BME280;6743;49.934;9.138;2023-02-04T10:39:50;102385.09;;;6.66;100.00
13348;BME280;6743;49.934;9.138;2023-02-04T10:42:20;102389.44;;;6.67;100.00
13348;BME280;6743;49.934;9.138;2023-02-04T10:44:50;102390.34;;;6.66;100.00
13348;BME280;6743;49.934;9.138;2023-02-04T10:47:18;102374.38;;;6.54;100.00
13348;BME280;6743;49.934;9.138;2023-02-04T10:49:55;102389.44;;;6.67;100.00
13348;BME280;6743;49.934;9.138;2023-02-04T10:52:25;102390.84;;;6.73;100.00
13348;BME280;6743;49.934;9.138;2023-02-04T10:54:53;102388.78;;;6.78;100.00
13348;BME280;6743;49.934;9.138;2023-02-04T10:57:21;102395.69;;;6.81;100.00
13348;BME280;6743;49.934;9.138;2023-02-04T10:59:50;102380.16;;;6.76;100.00
13348;BME280;6743;49.934;9.138;2023-02-04T11:02:40;102390.41;;;6.81;100.00
13348;BME280;6743;49.934;9.138;2023-02-04T11:05:11;102392.91;;;6.84;100.00
13348;BME280;6743;49.934;9.138;2023-02-04T11:07:38;102387.00;;;6.79;100.00
13348;BME280;6743;49.934;9.138;2023-02-04T11:10:04;102392.91;;;6.84;100.00
13348;BME280;6743;49.934;9.138;2023-02-04T11:12:40;102384.12;;;6.83;100.00
13348;BME280;6743;49.934;9.138;2023-02-04T11:15:37;102384.97;;;6.84;100.00
13348;BME280;6743;49.934;9.138;2023-02-04T11:18:05;102391.50;;;6.92;100.00
13348;BME280;6743;49.934;9.138;2023-02-04T11:20:33;102399.03;;;6.98;100.00
13348;BME280;6743;49.934;9.138;2023-02-04T11:23:30;102402.38;;;7.02;100.00
13348;BME280;6743;49.934;9.138;2023-02-04T11:26:19;102401.44;;;7.03;100.00
13348;BME280;6743;49.934;9.138;2023-02-04T11:29:09;102390.88;;;7.03;100.00
13348;BME280;6743;49.934;9.138;2023-02-04T11:31:43;102394.28;;;7.05;100.00
13348;BME280;6743;49.934;9.138;2023-02-04T11:34:24;102391.72;;;7.03;100.00
13348;BME280;6743;49.934;9.138;2023-02-04T11:37:09;102393.59;;;7.01;100.00
13348;BME280;6743;49.934;9.138;2023-02-04T11:39:39;102395.31;;;7.02;100.00
13348;BME280;6743;49.934;9.138;2023-02-04T11:42:16;102399.72;;;7.02;100.00
13348;BME280;6743;49.934;9.138;2023-02-04T11:44:47;102405.94;;;7.01;100.00
13348;BME280;6743;49.934;9.138;2023-02-04T11:47:13;102408.78;;;6.98;100.00
13348;BME280;6743;49.934;9.138;2023-02-04T11:49:40;102408.78;;;6.98;100.00
13348;BME280;6743;49.934;9.138;2023-02-04T11:52:10;102406.37;;;6.93;100.00
13348;BME280;6743;49.934;9.138;2023-02-04T11:54:39;102410.81;;;6.93;100.00
13348;BME280;6743;49.934;9.138;2023-02-04T11:57:05;102407.25;;;6.94;100.00
13348;BME280;6743;49.934;9.138;2023-02-04T11:59:31;102409.87;;;6.94;100.00
13348;BME280;6743;49.934;9.138;2023-02-04T12:02:05;102409.87;;;6.94;100.00
13348;BME280;6743;49.934;9.138;2023-02-04T12:04:31;102399.84;;;6.85;100.00
13348;BME280;6743;49.934;9.138;2023-02-04T12:06:59;102413.22;;;6.97;100.00
13348;BME280;6743;49.934;9.138;2023-02-04T12:09:26;102407.72;;;7.00;100.00
13348;BME280;6743;49.934;9.138;2023-02-04T12:11:56;102410.13;;;7.05;100.00
13348;BME280;6743;49.934;9.138;2023-02-04T12:14:27;102403.72;;;7.09;100.00
13348;BME280;6743;49.934;9.138;2023-02-04T12:16:54;102412.22;;;7.14;100.00
13348;BME280;6743;49.934;9.138;2023-02-04T12:19:20;102421.66;;;7.18;100.00
13348;BME280;6743;49.934;9.138;2023-02-04T12:21:46;102418.81;;;7.21;100.00
13348;BME280;6743;49.934;9.138;2023-02-04T12:24:12;102416.03;;;7.24;100.00
13348;BME280;6743;49.934;9.138;2023-02-04T12:26:39;102418.66;;;7.24;100.00
13348;BME280;6743;49.934;9.138;2023-02-04T12:29:05;102420.37;;;7.25;100.00
13348;BME280;6743;49.934;9.138;2023-02-04T12:31:32;102412.87;;;7.18;100.00
13348;BME280;6743;49.934;9.138;2023-02-04T12:33:58;102410.78;;;7.08;100.00
13348;BME280;6743;49.934;9.138;2023-02-04T12:36:25;102405.19;;;6.99;100.00
13348;BME280;6743;49.934;9.138;2023-02-04T12:38:52;102419.47;;;7.10;100.00
13348;BME280;6743;49.934;9.138;2023-02-04T12:41:18;102410.22;;;7.03;100.00
13348;BME280;6743;49.934;9.138;2023-02-04T12:43:44;102429.38;;;7.21;100.00
13348;BME280;6743;49.934;9.138;2023-02-04T12:46:11;102415.72;;;7.29;100.00
13348;BME280;6743;49.934;9.138;2023-02-04T12:48:37;102410.28;;;7.32;100.00
13348;BME280;6743;49.934;9.138;2023-02-04T12:51:05;102411.16;;;7.46;100.00
13348;BME280;6743;49.934;9.138;2023-02-04T12:53:34;102392.09;;;7.41;100.00
13348;BME280;6743;49.934;9.138;2023-02-04T12:56:00;102413.31;;;7.54;100.00
13348;BME280;6743;49.934;9.138;2023-02-04T12:58:26;102418.50;;;7.56;100.00
13348;BME280;6743;49.934;9.138;2023-02-04T13:00:56;102416.94;;;7.53;100.00